Time,TemperatureF,DewpointF,PressureIn,WindDirection,WindDirectionDegrees,WindSpeedMPH,WindSpeedGustMPH,Humidity,HourlyPrecipIn,Conditions,Clouds,dailyrainin,SoftwareType,DateUTC
2013-03-31 00:10:00,58.5,46.3,29.96,NW,315,0.0,5.6,64,0.00,,,0.00,open2300-1.11,2013-03-31 07:10:00,
2013-03-31 00:20:00,58.3,46.1,29.97,NW,315,0.0,2.5,64,0.00,,,0.00,open2300-1.11,2013-03-31 07:20:00,
2013-03-31 00:30:00,57.6,45.4,29.97,WSW,247,0.0,0.0,64,0.00,,,0.00,open2300-1.11,2013-03-31 07:30:00,
2013-03-31 00:40:00,56.5,44.8,29.98,South,180,0.0,0.0,65,0.00,,,0.00,open2300-1.11,2013-03-31 07:40:00,
2013-03-31 00:50:00,55.6,44.8,29.98,ESE,112,0.0,0.0,67,0.00,,,0.00,open2300-1.11,2013-03-31 07:50:00,
2013-03-31 01:10:00,53.8,43.8,29.98,ESE,112,0.0,0.0,69,0.00,,,0.00,open2300-1.11,2013-03-31 08:10:00,
2013-03-31 01:20:00,52.9,43.4,29.98,ESE,112,0.0,0.0,70,0.00,,,0.00,open2300-1.11,2013-03-31 08:20:00,
2013-03-31 01:30:00,52.3,43.3,29.98,SSE,157,0.0,0.0,71,0.00,,,0.00,open2300-1.11,2013-03-31 08:30:00,
2013-03-31 01:40:00,51.8,43.5,29.99,SSE,157,0.0,1.8,73,0.00,,,0.00,open2300-1.11,2013-03-31 08:40:00,
2013-03-31 01:50:00,51.6,44.0,29.99,SSE,157,0.0,6.5,75,0.00,,,0.00,open2300-1.11,2013-03-31 08:50:00,
2013-03-31 02:10:00,51.8,45.2,29.99,South,180,0.0,8.3,78,0.00,,,0.00,open2300-1.11,2013-03-31 09:10:00,
2013-03-31 02:20:00,51.8,45.5,30.00,SSE,157,0.0,8.1,79,0.00,,,0.00,open2300-1.11,2013-03-31 09:20:00,
2013-03-31 02:30:00,51.6,45.3,30.00,South,180,0.0,8.3,79,0.00,,,0.00,open2300-1.11,2013-03-31 09:30:00,
2013-03-31 02:40:00,51.4,45.2,30.00,South,180,5.8,8.3,79,0.00,,,0.00,open2300-1.11,2013-03-31 09:40:00,
2013-03-31 02:50:00,51.4,45.2,30.00,SSW,202,7.2,8.7,79,0.00,,,0.00,open2300-1.11,2013-03-31 09:50:00,
2013-03-31 03:10:00,50.9,44.6,29.99,South,180,0.0,8.1,79,0.00,,,0.00,open2300-1.11,2013-03-31 10:10:00,
2013-03-31 03:20:00,50.7,44.8,30.00,SSW,202,0.0,7.4,80,0.00,,,0.00,open2300-1.11,2013-03-31 10:20:00,
2013-03-31 03:30:00,50.5,44.6,30.00,South,180,7.2,7.4,80,0.00,,,0.00,open2300-1.11,2013-03-31 10:30:00,
2013-03-31 03:40:00,50.4,44.4,30.00,South,180,0.0,7.6,80,0.00,,,0.00,open2300-1.11,2013-03-31 10:40:00,
2013-03-31 03:50:00,50.4,44.4,30.00,SSW,202,0.0,6.5,80,0.00,,,0.00,open2300-1.11,2013-03-31 10:50:00,
2013-03-31 04:10:00,50.2,44.2,30.00,SSW,202,0.0,8.3,80,0.00,,,0.00,open2300-1.11,2013-03-31 11:10:00,
2013-03-31 04:20:00,49.8,43.9,30.00,SSW,202,0.0,2.2,80,0.00,,,0.00,open2300-1.11,2013-03-31 11:20:00,
2013-03-31 04:30:00,49.8,43.9,30.00,SSW,202,0.0,0.0,80,0.00,,,0.00,open2300-1.11,2013-03-31 11:30:00,
2013-03-31 04:40:00,49.8,43.9,30.00,SSW,202,0.0,2.2,80,0.00,,,0.00,open2300-1.11,2013-03-31 11:40:00,
2013-03-31 04:50:00,49.6,43.7,30.00,SSW,202,0.0,0.0,80,0.00,,,0.00,open2300-1.11,2013-03-31 11:50:00,
2013-03-31 05:10:00,48.7,43.1,30.00,South,180,0.0,0.0,81,0.00,,,0.00,open2300-1.11,2013-03-31 12:10:00,
2013-03-31 05:20:00,48.0,42.4,30.00,South,180,0.0,0.0,81,0.00,,,0.00,open2300-1.11,2013-03-31 12:20:00,
2013-03-31 05:30:00,47.5,41.9,30.00,South,180,0.0,0.0,81,0.00,,,0.00,open2300-1.11,2013-03-31 12:30:00,
2013-03-31 05:40:00,46.9,41.4,30.00,South,180,0.0,0.0,81,0.00,,,0.00,open2300-1.11,2013-03-31 12:40:00,
2013-03-31 05:50:00,46.6,41.4,30.00,SSE,157,0.0,0.0,82,0.00,,,0.00,open2300-1.11,2013-03-31 12:50:00,
2013-03-31 06:10:00,46.0,40.9,30.00,SSE,157,0.0,0.0,82,0.00,,,0.00,open2300-1.11,2013-03-31 13:10:00,
2013-03-31 06:20:00,45.9,41.0,30.00,SE,135,0.0,0.0,83,0.00,,,0.00,open2300-1.11,2013-03-31 13:20:00,
2013-03-31 06:30:00,45.7,40.8,30.00,SE,135,0.0,0.0,83,0.00,,,0.00,open2300-1.11,2013-03-31 13:30:00,
2013-03-31 06:40:00,45.3,40.5,30.00,SE,135,0.0,0.0,83,0.00,,,0.00,open2300-1.11,2013-03-31 13:40:00,
2013-03-31 06:50:00,45.1,40.3,30.00,SE,135,0.0,0.0,83,0.00,,,0.00,open2300-1.11,2013-03-31 13:50:00,
2013-03-31 07:00:00,45.1,40.6,30.00,SE,135,0.0,0.0,84,0.00,,,0.00,open2300-1.11,2013-03-31 14:00:00,
2013-03-31 07:10:00,45.1,40.6,30.00,ESE,112,0.0,0.0,84,0.00,,,0.00,open2300-1.11,2013-03-31 14:10:00,
2013-03-31 07:20:00,45.7,41.5,30.00,ESE,112,0.0,0.0,85,0.00,,,0.00,open2300-1.11,2013-03-31 14:20:00,
2013-03-31 07:30:00,46.2,42.3,30.00,ESE,112,0.0,0.0,86,0.00,,,0.00,open2300-1.11,2013-03-31 14:30:00,
2013-03-31 07:40:00,47.3,43.3,30.00,ESE,112,0.0,0.0,86,0.00,,,0.00,open2300-1.11,2013-03-31 14:40:00,
2013-03-31 07:50:00,48.6,44.8,30.00,ESE,112,0.0,0.0,87,0.00,,,0.00,open2300-1.11,2013-03-31 14:50:00,
2013-03-31 08:00:00,50.4,46.6,30.00,ESE,112,0.0,0.0,87,0.00,,,0.00,open2300-1.11,2013-03-31 15:00:00,
2013-03-31 08:10:00,51.6,47.5,30.00,ESE,112,0.0,0.0,86,0.00,,,0.00,open2300-1.11,2013-03-31 15:10:00,
2013-03-31 08:20:00,53.2,48.5,30.00,ESE,112,0.0,0.0,84,0.00,,,0.00,open2300-1.11,2013-03-31 15:20:00,
2013-03-31 08:30:00,54.7,48.9,30.00,ESE,112,0.0,0.0,81,0.00,,,0.00,open2300-1.11,2013-03-31 15:30:00,
2013-03-31 08:40:00,56.1,49.3,30.00,ESE,112,0.0,0.0,78,0.00,,,0.00,open2300-1.11,2013-03-31 15:40:00,
2013-03-31 08:50:00,57.4,50.2,30.00,SE,135,0.0,0.0,77,0.00,,,0.00,open2300-1.11,2013-03-31 15:50:00,
2013-03-31 09:00:00,58.5,50.5,30.00,SSE,157,0.0,0.0,75,0.00,,,0.00,open2300-1.11,2013-03-31 16:00:00,
2013-03-31 09:10:00,59.5,50.9,30.00,South,180,0.0,0.0,73,0.00,,,0.00,open2300-1.11,2013-03-31 16:10:00,
2013-03-31 09:20:00,60.4,51.1,30.00,SSW,202,4.0,4.0,71,0.00,,,0.00,open2300-1.11,2013-03-31 16:20:00,
2013-03-31 09:30:00,61.2,51.0,30.00,SSE,157,0.0,4.0,69,0.00,,,0.00,open2300-1.11,2013-03-31 16:30:00,
2013-03-31 09:40:00,61.9,51.2,30.00,South,180,0.0,4.5,68,0.00,,,0.00,open2300-1.11,2013-03-31 16:40:00,
2013-03-31 09:50:00,63.0,51.8,30.00,South,180,0.0,7.4,67,0.00,,,0.00,open2300-1.11,2013-03-31 16:50:00,
2013-03-31 10:00:00,63.3,51.3,30.00,SSE,157,5.6,7.6,65,0.00,,,0.00,open2300-1.11,2013-03-31 17:00:00,
2013-03-31 10:10:00,64.0,52.0,30.00,SSW,202,2.5,7.8,65,0.00,,,0.00,open2300-1.11,2013-03-31 17:10:00,
2013-03-31 10:20:00,64.8,52.2,30.00,SSE,157,0.0,6.0,64,0.00,,,0.00,open2300-1.11,2013-03-31 17:20:00,
2013-03-31 10:30:00,65.3,51.9,30.00,SE,135,0.0,2.2,62,0.00,,,0.00,open2300-1.11,2013-03-31 17:30:00,
2013-03-31 10:40:00,66.4,52.6,30.00,SE,135,2.5,6.0,61,0.00,,,0.00,open2300-1.11,2013-03-31 17:40:00,
2013-03-31 10:50:00,66.9,53.0,30.00,SSW,202,0.0,7.4,61,0.00,,,0.00,open2300-1.11,2013-03-31 17:50:00,
2013-03-31 11:00:00,66.9,52.6,30.00,South,180,0.0,0.0,60,0.00,,,0.00,open2300-1.11,2013-03-31 18:00:00,
2013-03-31 11:10:00,67.3,52.5,30.00,SE,135,0.0,5.6,59,0.00,,,0.00,open2300-1.11,2013-03-31 18:10:00,
2013-03-31 11:20:00,68.5,53.2,30.00,SSW,202,0.0,5.8,58,0.00,,,0.00,open2300-1.11,2013-03-31 18:20:00,
2013-03-31 11:30:00,68.9,53.0,30.00,South,180,0.0,8.3,57,0.00,,,0.00,open2300-1.11,2013-03-31 18:30:00,
2013-03-31 11:40:00,70.2,54.2,30.00,SE,135,0.0,8.1,57,0.00,,,0.00,open2300-1.11,2013-03-31 18:40:00,
2013-03-31 11:50:00,70.7,53.7,30.00,SSE,157,8.3,8.3,55,0.00,,,0.00,open2300-1.11,2013-03-31 18:50:00,
2013-03-31 12:00:00,71.2,53.7,30.00,SE,135,0.0,8.3,54,0.00,,,0.00,open2300-1.11,2013-03-31 19:00:00,
2013-03-31 12:10:00,72.1,54.5,30.00,SSW,202,0.0,0.0,54,0.00,,,0.00,open2300-1.11,2013-03-31 19:10:00,
2013-03-31 12:20:00,72.3,54.1,29.99,SSW,202,2.9,6.0,53,0.00,,,0.00,open2300-1.11,2013-03-31 19:20:00,
2013-03-31 12:30:00,73.0,54.3,29.99,South,180,0.0,7.6,52,0.00,,,0.00,open2300-1.11,2013-03-31 19:30:00,
2013-03-31 12:40:00,72.5,53.8,29.99,SE,135,0.0,7.8,52,0.00,,,0.00,open2300-1.11,2013-03-31 19:40:00,
2013-03-31 12:50:00,73.2,54.5,29.98,SE,135,0.0,8.5,52,0.00,,,0.00,open2300-1.11,2013-03-31 19:50:00,
2013-03-31 13:00:00,73.2,53.9,29.98,SSW,202,6.5,7.6,51,0.00,,,0.00,open2300-1.11,2013-03-31 20:00:00,
2013-03-31 13:10:00,73.6,53.8,29.98,SSW,202,0.0,7.8,50,0.00,,,0.00,open2300-1.11,2013-03-31 20:10:00,
2013-03-31 13:20:00,72.7,53.5,29.97,SSW,202,0.0,3.1,51,0.00,,,0.00,open2300-1.11,2013-03-31 20:20:00,
2013-03-31 13:30:00,73.4,53.6,29.97,South,180,0.0,8.1,50,0.00,,,0.00,open2300-1.11,2013-03-31 20:30:00,
2013-03-31 13:40:00,73.8,54.0,29.97,SSW,202,0.0,8.7,50,0.00,,,0.00,open2300-1.11,2013-03-31 20:40:00,
2013-03-31 13:50:00,73.8,53.3,29.97,SW,225,1.1,7.8,49,0.00,,,0.00,open2300-1.11,2013-03-31 20:50:00,
2013-03-31 14:00:00,73.9,52.9,29.97,WSW,247,0.0,8.3,48,0.00,,,0.00,open2300-1.11,2013-03-31 21:00:00,
2013-03-31 14:10:00,73.6,53.2,29.97,SSW,202,0.0,6.9,49,0.00,,,0.00,open2300-1.11,2013-03-31 21:10:00,
2013-03-31 14:20:00,73.8,54.5,29.96,SW,225,0.0,8.3,51,0.00,,,0.00,open2300-1.11,2013-03-31 21:20:00,
2013-03-31 14:30:00,74.1,53.7,29.96,SE,135,0.0,7.6,49,0.00,,,0.00,open2300-1.11,2013-03-31 21:30:00,
2013-03-31 14:40:00,74.1,54.3,29.96,SE,135,0.0,7.2,50,0.00,,,0.00,open2300-1.11,2013-03-31 21:40:00,
2013-03-31 14:50:00,74.5,54.1,29.95,SSE,157,0.0,8.3,49,0.00,,,0.00,open2300-1.11,2013-03-31 21:50:00,
2013-03-31 15:00:00,74.3,53.9,29.95,SSW,202,4.2,8.1,49,0.00,,,0.00,open2300-1.11,2013-03-31 22:00:00,
2013-03-31 15:10:00,74.5,53.5,29.95,WSW,247,0.0,8.3,48,0.00,,,0.00,open2300-1.11,2013-03-31 22:10:00,
2013-03-31 15:20:00,74.5,53.5,29.95,SSE,157,3.1,5.1,48,0.00,,,0.00,open2300-1.11,2013-03-31 22:20:00,
2013-03-31 15:30:00,74.5,53.5,29.95,SSW,202,9.8,9.8,48,0.00,,,0.00,open2300-1.11,2013-03-31 22:30:00,
2013-03-31 15:40:00,74.5,54.1,29.94,South,180,6.7,9.8,49,0.00,,,0.00,open2300-1.11,2013-03-31 22:40:00,
2013-03-31 15:50:00,74.5,54.7,29.94,SSW,202,8.1,8.3,50,0.00,,,0.00,open2300-1.11,2013-03-31 22:50:00,
2013-03-31 16:00:00,74.1,53.7,29.94,SW,225,6.0,10.1,49,0.00,,,0.00,open2300-1.11,2013-03-31 23:00:00,
2013-03-31 16:10:00,73.6,54.3,29.94,South,180,0.0,8.3,51,0.00,,,0.00,open2300-1.11,2013-03-31 23:10:00,
2013-03-31 16:20:00,74.3,54.5,29.94,SSW,202,0.0,8.3,50,0.00,,,0.00,open2300-1.11,2013-03-31 23:20:00,
2013-03-31 16:30:00,74.8,55.0,29.94,SE,135,0.0,7.8,50,0.00,,,0.00,open2300-1.11,2013-03-31 23:30:00,
2013-03-31 16:40:00,75.0,55.2,29.94,SSW,202,0.0,8.3,50,0.00,,,0.00,open2300-1.11,2013-03-31 23:40:00,
2013-03-31 16:50:00,75.0,55.2,29.94,South,180,2.0,8.1,50,0.00,,,0.00,open2300-1.11,2013-03-31 23:50:00,
2013-03-31 17:00:00,74.1,53.1,29.94,WSW,247,9.6,11.6,48,0.00,,,0.00,open2300-1.11,2013-04-01 00:00:00,
2013-03-31 17:10:00,72.3,50.8,29.94,West,270,7.6,12.3,47,0.00,,,0.00,open2300-1.11,2013-04-01 00:10:00,
2013-03-31 17:20:00,71.1,49.7,29.94,West,270,6.7,11.0,47,0.00,,,0.00,open2300-1.11,2013-04-01 00:20:00,
2013-03-31 17:30:00,70.2,49.5,29.94,WSW,247,8.1,10.5,48,0.00,,,0.00,open2300-1.11,2013-04-01 00:30:00,
2013-03-31 17:40:00,69.4,49.4,29.94,West,270,7.2,8.9,49,0.00,,,0.00,open2300-1.11,2013-04-01 00:40:00,
2013-03-31 17:50:00,68.9,50.0,29.95,SW,225,5.1,9.6,51,0.00,,,0.00,open2300-1.11,2013-04-01 00:50:00,
2013-03-31 18:00:00,68.2,49.9,29.95,SW,225,6.7,11.2,52,0.00,,,0.00,open2300-1.11,2013-04-01 01:00:00,
2013-03-31 18:10:00,67.8,50.5,29.95,WSW,247,0.0,9.6,54,0.00,,,0.00,open2300-1.11,2013-04-01 01:10:00,
2013-03-31 18:20:00,67.6,50.8,29.96,SW,225,0.0,8.9,55,0.00,,,0.00,open2300-1.11,2013-04-01 01:20:00,
2013-03-31 18:30:00,67.6,50.8,29.96,WNW,292,0.7,8.1,55,0.00,,,0.00,open2300-1.11,2013-04-01 01:30:00,
2013-03-31 18:40:00,67.6,50.8,29.97,WNW,292,7.8,10.1,55,0.00,,,0.00,open2300-1.11,2013-04-01 01:40:00,
2013-03-31 18:50:00,66.9,50.7,29.97,WSW,247,8.7,10.1,56,0.00,,,0.00,open2300-1.11,2013-04-01 01:50:00,
2013-03-31 19:00:00,66.0,50.3,29.97,WSW,247,7.6,9.8,57,0.00,,,0.00,open2300-1.11,2013-04-01 02:00:00,
2013-03-31 19:10:00,65.1,49.9,29.97,WSW,247,6.7,9.4,58,0.00,,,0.00,open2300-1.11,2013-04-01 02:10:00,
2013-03-31 19:20:00,64.6,49.9,29.98,SW,225,0.0,10.5,59,0.00,,,0.00,open2300-1.11,2013-04-01 02:20:00,
2013-03-31 19:30:00,63.7,49.5,29.98,WSW,247,6.3,7.8,60,0.00,,,0.00,open2300-1.11,2013-04-01 02:30:00,
2013-03-31 19:40:00,63.0,49.3,29.99,SW,225,3.6,7.8,61,0.00,,,0.00,open2300-1.11,2013-04-01 02:40:00,
2013-03-31 19:50:00,61.9,48.7,29.99,SW,225,0.0,8.3,62,0.00,,,0.00,open2300-1.11,2013-04-01 02:50:00,
2013-03-31 20:00:00,61.0,48.8,29.99,SSW,202,2.0,8.3,64,0.00,,,0.00,open2300-1.11,2013-04-01 03:00:00,
2013-03-31 20:10:00,60.4,48.7,30.00,West,270,0.0,6.9,65,0.00,,,0.00,open2300-1.11,2013-04-01 03:10:00,
2013-03-31 20:20:00,59.5,47.8,30.00,West,270,0.0,5.8,65,0.00,,,0.00,open2300-1.11,2013-04-01 03:20:00,
2013-03-31 20:30:00,58.8,47.4,30.01,West,270,0.0,3.8,66,0.00,,,0.00,open2300-1.11,2013-04-01 03:30:00,
2013-03-31 20:40:00,58.8,47.9,30.02,West,270,0.0,0.0,67,0.00,,,0.00,open2300-1.11,2013-04-01 03:40:00,
2013-03-31 20:50:00,58.6,47.7,30.02,WSW,247,0.0,5.4,67,0.00,,,0.00,open2300-1.11,2013-04-01 03:50:00,
2013-03-31 21:00:00,58.6,48.1,30.02,SSW,202,0.0,0.0,68,0.00,,,0.00,open2300-1.11,2013-04-01 04:00:00,
2013-03-31 21:10:00,58.6,48.1,30.02,SW,225,4.7,7.8,68,0.00,,,0.00,open2300-1.11,2013-04-01 04:10:00,
2013-03-31 21:20:00,58.3,47.7,30.03,WSW,247,0.0,8.1,68,0.00,,,0.00,open2300-1.11,2013-04-01 04:20:00,
2013-03-31 21:30:00,57.9,47.8,30.03,SSW,202,0.0,8.7,69,0.00,,,0.00,open2300-1.11,2013-04-01 04:30:00,
2013-03-31 21:40:00,57.7,47.6,30.03,WSW,247,0.0,7.4,69,0.00,,,0.00,open2300-1.11,2013-04-01 04:40:00,
2013-03-31 21:50:00,57.6,47.4,30.03,SW,225,0.0,1.8,69,0.00,,,0.00,open2300-1.11,2013-04-01 04:50:00,
2013-03-31 22:00:00,57.4,47.7,30.03,WSW,247,6.0,7.4,70,0.00,,,0.00,open2300-1.11,2013-04-01 05:00:00,
2013-03-31 22:10:00,57.0,47.3,30.03,SSW,202,3.8,8.3,70,0.00,,,0.00,open2300-1.11,2013-04-01 05:10:00,
2013-03-31 22:20:00,56.8,47.2,30.04,SSW,202,0.0,3.8,70,0.00,,,0.00,open2300-1.11,2013-04-01 05:20:00,
2013-03-31 22:30:00,56.5,46.8,30.04,SW,225,0.0,0.0,70,0.00,,,0.00,open2300-1.11,2013-04-01 05:30:00,
2013-03-31 22:40:00,56.5,46.8,30.05,SW,225,0.0,0.0,70,0.00,,,0.00,open2300-1.11,2013-04-01 05:40:00,
2013-03-31 22:50:00,56.5,47.2,30.04,SW,225,0.0,0.0,71,0.00,,,0.00,open2300-1.11,2013-04-01 05:50:00,
2013-03-31 23:00:00,56.5,46.8,30.04,SSW,202,0.0,0.0,70,0.00,,,0.00,open2300-1.11,2013-04-01 06:00:00,
2013-03-31 23:10:00,56.3,46.7,30.04,SSE,157,0.0,0.0,70,0.00,,,0.00,open2300-1.11,2013-04-01 06:10:00,
2013-03-31 23:20:00,56.3,47.0,30.04,SSE,157,0.0,0.0,71,0.00,,,0.00,open2300-1.11,2013-04-01 06:20:00,
2013-03-31 23:30:00,56.3,47.4,30.04,SSW,202,0.0,0.0,72,0.00,,,0.00,open2300-1.11,2013-04-01 06:30:00,
2013-03-31 23:40:00,56.3,47.7,30.04,West,270,0.0,3.1,73,0.00,,,0.00,open2300-1.11,2013-04-01 06:40:00,
2013-03-31 23:50:00,56.3,47.7,30.04,SW,225,0.0,4.7,73,0.00,,,0.00,open2300-1.11,2013-04-01 06:50:00,